Time;durP1;ratioP1;P1;durP2;ratioP2;P2;SDS_P1;SDS_P2;PMS_P1;PMS_P2;Temp;Humidity;BMP_temperature;BMP_pressure;BME280_temperature;BME280_humidity;BME280_pressure;Samples;Min_cycle;Max_cycle;Signal;HPM_P1;HPM_P2
2024/03/26 00:01:23;;;;;;;8.77;2.92;;;9.20;99.90;;;;;;5052075;28;20111;-61
2024/03/26 00:03:48;;;;;;;7.47;3.38;;;9.10;99.90;;;;;;5035381;28;20037;-61
2024/03/26 00:06:14;;;;;;;6.97;3.00;;;9.10;99.90;;;;;;5052569;28;20041;-61
2024/03/26 00:08:40;;;;;;;8.45;3.30;;;9.10;99.90;;;;;;5052345;28;20033;-63
2024/03/26 00:11:06;;;;;;;7.78;3.33;;;9.10;99.90;;;;;;5052385;28;20423;-61
2024/03/26 00:13:32;;;;;;;6.70;3.22;;;9.00;99.90;;;;;;5052231;28;20372;-62
2024/03/26 00:15:58;;;;;;;12.55;3.55;;;9.00;99.90;;;;;;5035458;28;20049;-62
2024/03/26 00:18:23;;;;;;;7.20;3.10;;;9.00;99.90;;;;;;5053471;28;20078;-61
2024/03/26 00:20:49;;;;;;;8.18;3.22;;;9.00;99.90;;;;;;5056474;28;20037;-61
2024/03/26 00:23:16;;;;;;;5.78;3.03;;;8.90;99.90;;;;;;5056388;28;20406;-61
2024/03/26 00:25:42;;;;;;;6.80;3.03;;;8.90;99.90;;;;;;5056573;28;20037;-61
2024/03/26 00:28:08;;;;;;;6.93;3.20;;;8.80;99.90;;;;;;5056096;28;20037;-61
2024/03/26 00:30:34;;;;;;;7.38;3.17;;;8.80;99.90;;;;;;5056603;28;20052;-61
2024/03/26 00:32:59;;;;;;;6.93;3.00;;;8.80;99.90;;;;;;5056292;28;20071;-61
2024/03/26 00:35:25;;;;;;;7.18;3.05;;;8.80;99.90;;;;;;5056209;28;20051;-61
2024/03/26 00:37:51;;;;;;;8.88;3.15;;;8.80;99.90;;;;;;5055941;28;20041;-61
2024/03/26 00:40:17;;;;;;;7.97;3.10;;;8.80;99.90;;;;;;5056136;28;20478;-61
2024/03/26 00:42:43;;;;;;;7.80;3.00;;;8.80;99.90;;;;;;5056036;28;20523;-61
2024/03/26 00:45:09;;;;;;;7.25;3.22;;;8.80;99.90;;;;;;5055870;28;20128;-61
2024/03/26 00:47:34;;;;;;;7.70;3.40;;;8.80;99.90;;;;;;5055806;28;20091;-61
2024/03/26 00:50:00;;;;;;;6.78;3.30;;;8.80;99.90;;;;;;5056084;28;20172;-61
2024/03/26 00:52:26;;;;;;;7.07;3.15;;;8.80;99.90;;;;;;5055995;28;20495;-61
2024/03/26 00:54:52;;;;;;;10.50;3.25;;;8.80;99.90;;;;;;5055866;28;20052;-61
2024/03/26 00:57:18;;;;;;;7.13;3.20;;;8.80;99.90;;;;;;5055843;28;20036;-61
2024/03/26 00:59:43;;;;;;;7.93;2.97;;;8.80;99.90;;;;;;5055800;28;20658;-61
2024/03/26 01:02:09;;;;;;;7.10;3.70;;;8.80;99.90;;;;;;5055406;28;20496;-63
2024/03/26 01:04:35;;;;;;;8.38;3.55;;;8.80;99.90;;;;;;5039233;28;20112;-61
2024/03/26 01:07:01;;;;;;;8.57;3.05;;;8.80;99.90;;;;;;5055630;28;20048;-61
2024/03/26 01:09:27;;;;;;;8.32;3.08;;;8.80;99.90;;;;;;5038812;28;20072;-63
2024/03/26 01:11:53;;;;;;;11.43;3.38;;;8.80;99.90;;;;;;5039017;28;20160;-62
2024/03/26 01:14:18;;;;;;;5.57;3.20;;;8.80;99.90;;;;;;5038808;28;20041;-61
2024/03/26 01:16:44;;;;;;;6.97;3.20;;;8.80;99.90;;;;;;5055247;28;20100;-61
2024/03/26 01:19:10;;;;;;;7.75;3.40;;;8.90;99.90;;;;;;5055480;28;20076;-61
2024/03/26 01:21:36;;;;;;;10.00;3.60;;;8.80;99.90;;;;;;5038978;28;20048;-61
2024/03/26 01:24:02;;;;;;;8.80;3.58;;;8.80;99.90;;;;;;5055398;28;20029;-61
2024/03/26 01:26:27;;;;;;;5.43;3.17;;;8.80;99.90;;;;;;5054960;28;20444;-61
2024/03/26 01:28:53;;;;;;;6.35;3.45;;;8.80;99.90;;;;;;5055495;28;20032;-61
2024/03/26 01:31:19;;;;;;;9.88;3.22;;;8.80;99.90;;;;;;5054460;28;20132;-61
2024/03/26 01:33:45;;;;;;;8.05;3.47;;;8.90;99.90;;;;;;5055222;28;20049;-62
2024/03/26 01:36:11;;;;;;;8.95;3.42;;;8.90;99.90;;;;;;5055081;28;20047;-62
2024/03/26 01:38:36;;;;;;;7.30;3.85;;;8.90;99.90;;;;;;5055279;28;20048;-62
2024/03/26 01:41:02;;;;;;;8.82;3.15;;;8.90;99.90;;;;;;5055050;28;20507;-62
2024/03/26 01:43:28;;;;;;;6.65;3.25;;;8.90;99.90;;;;;;5054984;28;20493;-62
2024/03/26 01:45:54;;;;;;;7.75;3.15;;;8.90;99.90;;;;;;5054849;28;20045;-61
2024/03/26 01:48:19;;;;;;;6.88;3.10;;;8.90;99.90;;;;;;5054920;28;20080;-61
2024/03/26 01:50:45;;;;;;;7.43;3.13;;;8.90;99.90;;;;;;5055090;28;20044;-61
2024/03/26 01:53:11;;;;;;;5.90;2.97;;;8.90;99.90;;;;;;5054614;28;20049;-61
2024/03/26 01:55:37;;;;;;;10.88;3.30;;;8.90;99.90;;;;;;5054847;28;20044;-61
2024/03/26 01:58:02;;;;;;;7.10;2.92;;;8.90;99.90;;;;;;5038214;28;20048;-61
2024/03/26 02:00:28;;;;;;;6.05;3.00;;;8.90;99.90;;;;;;5054745;28;20040;-61
2024/03/26 02:02:54;;;;;;;6.95;3.20;;;8.90;99.90;;;;;;5054627;28;20041;-61
2024/03/26 02:05:20;;;;;;;9.43;3.25;;;8.90;99.90;;;;;;5054487;28;20092;-61
2024/03/26 02:07:46;;;;;;;11.52;3.40;;;8.90;99.90;;;;;;5054754;28;20040;-61
2024/03/26 02:10:12;;;;;;;9.07;3.00;;;8.90;99.90;;;;;;5054347;28;20052;-61
2024/03/26 02:12:37;;;;;;;7.13;3.35;;;8.90;99.90;;;;;;5054390;28;20037;-61
2024/03/26 02:15:04;;;;;;;9.77;3.30;;;8.90;99.90;;;;;;5054636;28;20510;-62
2024/03/26 02:17:29;;;;;;;10.38;3.60;;;8.90;99.90;;;;;;5053757;28;20514;-61
2024/03/26 02:19:55;;;;;;;6.22;3.13;;;8.90;99.90;;;;;;5037403;28;20052;-61
2024/03/26 02:22:21;;;;;;;9.43;3.78;;;9.00;99.90;;;;;;5054193;28;20044;-61
2024/03/26 02:24:47;;;;;;;7.57;3.20;;;9.00;99.90;;;;;;5054168;28;20110;-61
2024/03/26 02:27:13;;;;;;;5.50;3.05;;;9.00;99.90;;;;;;5037630;28;20076;-61
2024/03/26 02:29:39;;;;;;;8.65;3.67;;;9.00;99.90;;;;;;5054153;28;20029;-62
2024/03/26 02:32:05;;;;;;;7.60;3.45;;;9.00;99.90;;;;;;5053906;28;20398;-61
2024/03/26 02:34:30;;;;;;;6.53;3.00;;;9.00;99.90;;;;;;5053961;28;20040;-61
2024/03/26 02:36:56;;;;;;;4.63;2.92;;;9.00;99.90;;;;;;5054151;28;20144;-61
2024/03/26 02:39:22;;;;;;;10.50;3.50;;;9.10;99.90;;;;;;5053948;28;20048;-61
2024/03/26 02:41:48;;;;;;;8.60;3.22;;;9.00;99.90;;;;;;5052707;28;20033;-62
2024/03/26 02:44:13;;;;;;;7.80;3.30;;;9.10;99.90;;;;;;5054031;28;20442;-61
2024/03/26 02:46:39;;;;;;;10.32;4.13;;;9.10;99.90;;;;;;5053634;28;20103;-61
2024/03/26 02:49:05;;;;;;;6.40;3.55;;;9.10;99.90;;;;;;5053823;28;20041;-61
2024/03/26 02:51:31;;;;;;;5.82;3.35;;;9.10;99.90;;;;;;5053580;28;20052;-62
2024/03/26 02:53:56;;;;;;;7.28;3.40;;;9.10;99.90;;;;;;5036880;28;20053;-62
2024/03/26 02:56:22;;;;;;;7.28;3.15;;;9.10;99.90;;;;;;5053894;28;20099;-61
2024/03/26 02:58:48;;;;;;;7.18;3.30;;;9.00;99.90;;;;;;5053538;28;20098;-61
2024/03/26 03:01:14;;;;;;;8.70;3.53;;;9.00;99.90;;;;;;5053855;28;20045;-60
2024/03/26 03:03:39;;;;;;;8.27;3.40;;;9.00;99.90;;;;;;5053502;28;20117;-60
2024/03/26 03:06:05;;;;;;;6.35;3.05;;;9.00;99.90;;;;;;5053132;28;20539;-59
2024/03/26 03:08:31;;;;;;;10.80;4.05;;;9.10;99.90;;;;;;5052858;28;20461;-59
2024/03/26 03:10:57;;;;;;;8.50;4.20;;;9.10;99.90;;;;;;5052837;28;20040;-59
2024/03/26 03:13:22;;;;;;;7.53;3.65;;;9.00;99.90;;;;;;5053058;28;20041;-60
2024/03/26 03:15:48;;;;;;;7.00;3.90;;;9.00;99.90;;;;;;5052929;28;20149;-60
2024/03/26 03:18:14;;;;;;;5.50;3.08;;;9.10;99.90;;;;;;5052975;28;20052;-60
2024/03/26 03:20:40;;;;;;;10.90;3.60;;;9.00;99.90;;;;;;5053072;28;20041;-60
2024/03/26 03:23:06;;;;;;;9.45;3.60;;;9.00;99.90;;;;;;5052869;28;20080;-60
2024/03/26 03:25:31;;;;;;;8.20;3.63;;;9.00;99.90;;;;;;5052844;28;20087;-61
2024/03/26 03:27:57;;;;;;;8.52;3.40;;;9.00;99.90;;;;;;5052838;28;20125;-60
2024/03/26 03:30:23;;;;;;;7.32;3.75;;;9.00;99.90;;;;;;5053117;28;20458;-60
2024/03/26 03:32:49;;;;;;;7.25;3.53;;;9.00;99.90;;;;;;5052874;28;20508;-61
2024/03/26 03:35:15;;;;;;;6.78;3.38;;;9.00;99.90;;;;;;5053040;28;20051;-62
2024/03/26 03:37:40;;;;;;;11.52;4.22;;;9.00;99.90;;;;;;5052551;28;20041;-62
2024/03/26 03:40:06;;;;;;;8.23;3.72;;;9.00;99.90;;;;;;5035948;28;20049;-62
2024/03/26 03:42:32;;;;;;;7.13;4.03;;;9.10;99.90;;;;;;5052678;28;20033;-62
2024/03/26 03:44:58;;;;;;;8.25;3.72;;;9.10;99.90;;;;;;5052604;28;20094;-62
2024/03/26 03:47:24;;;;;;;10.93;4.32;;;9.10;99.90;;;;;;5052783;28;20039;-62
2024/03/26 03:49:49;;;;;;;11.13;3.92;;;9.00;99.90;;;;;;5053133;28;20124;-61
2024/03/26 03:52:15;;;;;;;7.57;3.95;;;9.00;99.90;;;;;;5052912;28;20378;-61
2024/03/26 03:54:41;;;;;;;8.70;3.97;;;9.10;99.90;;;;;;5052246;28;20378;-61
2024/03/26 03:57:07;;;;;;;9.38;4.15;;;9.00;99.90;;;;;;5052617;28;20060;-61
2024/03/26 03:59:32;;;;;;;11.80;4.03;;;9.10;99.90;;;;;;5052282;28;20087;-60
2024/03/26 04:01:58;;;;;;;8.30;4.45;;;9.10;99.90;;;;;;5052364;28;20048;-61
2024/03/26 04:04:24;;;;;;;8.05;3.65;;;9.10;99.90;;;;;;5052495;28;20041;-61
2024/03/26 04:06:50;;;;;;;10.95;4.22;;;9.10;99.90;;;;;;5051995;28;20446;-61
2024/03/26 04:09:15;;;;;;;10.65;4.57;;;9.10;99.90;;;;;;5052233;28;20033;-61
2024/03/26 04:11:41;;;;;;;9.27;4.15;;;9.10;99.90;;;;;;5052287;28;20049;-61
2024/03/26 04:14:07;;;;;;;5.50;3.83;;;9.10;99.90;;;;;;5052308;28;20037;-61
2024/03/26 04:16:33;;;;;;;9.63;4.30;;;9.10;99.90;;;;;;5051874;28;20053;-61
2024/03/26 04:18:58;;;;;;;7.57;3.50;;;9.10;99.90;;;;;;5052208;28;20132;-62
2024/03/26 04:21:24;;;;;;;8.43;4.03;;;9.10;99.90;;;;;;5051964;28;20045;-62
2024/03/26 04:23:50;;;;;;;10.55;4.13;;;9.10;99.90;;;;;;5052200;28;20037;-62
2024/03/26 04:26:16;;;;;;;8.90;4.18;;;9.10;99.90;;;;;;5052124;28;20034;-62
2024/03/26 04:28:41;;;;;;;7.13;4.07;;;9.10;99.90;;;;;;5052447;28;20478;-61
2024/03/26 04:31:07;;;;;;;8.65;4.20;;;9.10;99.90;;;;;;5052136;28;20045;-61
2024/03/26 04:33:33;;;;;;;9.13;4.03;;;9.10;99.90;;;;;;5051930;28;20045;-61
2024/03/26 04:35:59;;;;;;;7.68;3.88;;;9.10;99.90;;;;;;5051919;28;20033;-61
2024/03/26 04:38:24;;;;;;;9.75;3.97;;;9.10;99.90;;;;;;5035602;28;20095;-60
2024/03/26 04:40:50;;;;;;;7.80;4.30;;;9.00;99.90;;;;;;5052046;28;20041;-60
2024/03/26 04:43:16;;;;;;;7.68;3.97;;;9.10;99.90;;;;;;5051722;28;20381;-61
2024/03/26 04:45:42;;;;;;;8.65;4.32;;;9.10;99.90;;;;;;5051961;28;20112;-61
2024/03/26 04:48:07;;;;;;;11.32;4.22;;;9.10;99.90;;;;;;5035292;28;20541;-61
2024/03/26 04:50:33;;;;;;;7.63;4.45;;;9.00;99.90;;;;;;5052079;28;20044;-61
2024/03/26 04:52:59;;;;;;;8.27;4.30;;;9.10;99.90;;;;;;5052044;28;20386;-63
2024/03/26 04:55:25;;;;;;;8.43;4.03;;;9.10;99.90;;;;;;5051453;28;20068;-62
2024/03/26 04:57:51;;;;;;;7.07;4.10;;;9.10;99.90;;;;;;5051896;28;20051;-61
2024/03/26 05:00:17;;;;;;;8.75;4.35;;;9.10;99.90;;;;;;5051870;28;20044;-61
2024/03/26 05:02:43;;;;;;;8.35;3.95;;;9.00;99.90;;;;;;5052114;28;20037;-61
2024/03/26 05:05:09;;;;;;;9.55;3.60;;;9.00;99.90;;;;;;5052516;28;20462;-61
2024/03/26 05:07:34;;;;;;;9.82;4.35;;;9.00;99.90;;;;;;5055163;28;20045;-61
2024/03/26 05:10:00;;;;;;;7.38;3.72;;;9.00;99.90;;;;;;5038921;28;20076;-61
2024/03/26 05:12:26;;;;;;;11.35;4.13;;;9.00;99.90;;;;;;5055704;28;20109;-61
2024/03/26 05:14:51;;;;;;;7.93;3.97;;;9.00;99.90;;;;;;5055391;28;20037;-61
2024/03/26 05:17:17;;;;;;;6.40;4.10;;;9.00;99.90;;;;;;5054817;28;20049;-61
2024/03/26 05:19:43;;;;;;;9.00;4.40;;;9.00;99.90;;;;;;5055669;28;20048;-61
2024/03/26 05:22:09;;;;;;;6.95;4.05;;;9.00;99.90;;;;;;5055495;28;20040;-61
2024/03/26 05:24:34;;;;;;;7.97;3.90;;;9.00;99.90;;;;;;5055211;28;20459;-61
2024/03/26 05:27:00;;;;;;;7.93;4.47;;;9.00;99.90;;;;;;5055199;28;20557;-62
2024/03/26 05:29:26;;;;;;;10.20;4.20;;;9.00;99.90;;;;;;5055134;28;20067;-61
2024/03/26 05:31:52;;;;;;;10.63;4.10;;;9.00;99.90;;;;;;5055219;28;20421;-60
2024/03/26 05:34:17;;;;;;;10.48;4.03;;;9.00;99.90;;;;;;5054933;28;20049;-64
2024/03/26 05:36:43;;;;;;;10.43;4.18;;;9.00;99.90;;;;;;5054752;28;20045;-60
2024/03/26 05:39:11;;;;;;;8.73;3.53;;;9.00;99.90;;;;;;5038497;28;20044;-60
2024/03/26 05:41:36;;;;;;;8.93;3.95;;;9.00;99.90;;;;;;5054525;28;20556;-60
2024/03/26 05:44:02;;;;;;;9.98;3.63;;;9.00;99.90;;;;;;5055025;28;20037;-60
2024/03/26 05:46:28;;;;;;;6.97;3.35;;;9.00;99.90;;;;;;5054484;28;20041;-61
2024/03/26 05:48:54;;;;;;;7.68;3.70;;;9.00;99.90;;;;;;5055120;28;20041;-61
2024/03/26 05:51:19;;;;;;;5.90;3.60;;;9.00;99.90;;;;;;5054590;28;20103;-61
2024/03/26 05:53:45;;;;;;;9.93;3.83;;;9.00;99.90;;;;;;5054394;28;20041;-61
2024/03/26 05:56:11;;;;;;;9.35;3.85;;;9.00;99.90;;;;;;5054448;28;20543;-61
2024/03/26 05:58:37;;;;;;;8.98;4.03;;;9.00;99.90;;;;;;5054916;28;20072;-61
2024/03/26 06:01:02;;;;;;;7.25;3.13;;;8.90;99.90;;;;;;5037888;28;20053;-61
2024/03/26 06:03:28;;;;;;;6.78;3.78;;;8.90;99.90;;;;;;5054486;28;20045;-62
2024/03/26 06:05:54;;;;;;;11.55;3.92;;;8.80;99.90;;;;;;5054620;28;20040;-61
2024/03/26 06:08:19;;;;;;;8.70;4.38;;;8.80;99.90;;;;;;5054610;28;20114;-61
2024/03/26 06:10:45;;;;;;;7.63;4.18;;;8.80;99.90;;;;;;5054036;28;20044;-61
2024/03/26 06:13:11;;;;;;;12.43;4.13;;;8.80;99.90;;;;;;5054485;28;20072;-62
2024/03/26 06:15:37;;;;;;;9.20;4.32;;;8.80;99.90;;;;;;5053804;28;20033;-62
2024/03/26 06:18:04;;;;;;;8.70;4.25;;;8.80;99.90;;;;;;5054509;28;20095;-61
2024/03/26 06:20:29;;;;;;;6.72;4.15;;;8.80;99.90;;;;;;5054134;28;20041;-61
2024/03/26 06:22:55;;;;;;;9.23;4.40;;;8.80;99.90;;;;;;5053864;28;20379;-61
2024/03/26 06:25:21;;;;;;;8.60;3.95;;;8.70;99.90;;;;;;5053983;28;20131;-62
2024/03/26 06:27:47;;;;;;;8.90;4.22;;;8.70;99.90;;;;;;5053977;28;20094;-65
2024/03/26 06:30:13;;;;;;;10.90;4.40;;;8.80;99.90;;;;;;5054014;28;20037;-65
2024/03/26 06:32:39;;;;;;;9.93;4.03;;;8.80;99.90;;;;;;5053953;28;20493;-67
2024/03/26 06:35:04;;;;;;;10.52;4.20;;;8.80;99.90;;;;;;5054147;28;20045;-66
2024/03/26 06:37:30;;;;;;;8.38;4.43;;;8.80;99.90;;;;;;5054034;28;20048;-65
2024/03/26 06:39:56;;;;;;;10.90;4.40;;;8.80;99.90;;;;;;5037111;28;20076;-65
2024/03/26 06:42:22;;;;;;;10.18;4.47;;;8.80;99.90;;;;;;5053440;28;20033;-65
2024/03/26 06:44:47;;;;;;;9.23;4.25;;;8.90;99.90;;;;;;5036923;28;20041;-65
2024/03/26 06:47:13;;;;;;;8.20;4.93;;;8.80;99.90;;;;;;5070562;28;20037;-65
2024/03/26 06:49:39;;;;;;;11.07;4.97;;;8.90;99.90;;;;;;5053551;28;20041;-65
2024/03/26 06:52:06;;;;;;;8.10;4.65;;;8.90;99.90;;;;;;5053538;28;20045;-65
2024/03/26 06:54:33;;;;;;;13.35;4.72;;;8.90;99.90;;;;;;5053765;28;20405;-66
2024/03/26 06:56:58;;;;;;;10.27;4.57;;;8.90;99.90;;;;;;5053559;28;20049;-66
2024/03/26 06:59:24;;;;;;;12.23;4.40;;;9.00;99.90;;;;;;5053418;28;20083;-67
2024/03/26 07:01:50;;;;;;;8.68;4.60;;;9.00;99.90;;;;;;5053315;28;20471;-67
2024/03/26 07:04:16;;;;;;;9.02;4.78;;;9.00;99.90;;;;;;5053817;28;20083;-66
2024/03/26 07:06:42;;;;;;;14.38;4.95;;;9.00;99.90;;;;;;5053396;28;20045;-67
2024/03/26 07:09:07;;;;;;;12.13;4.75;;;9.00;99.90;;;;;;5052899;28;20063;-67
2024/03/26 07:11:33;;;;;;;10.50;5.03;;;9.10;99.90;;;;;;5053053;28;20063;-67
2024/03/26 07:13:59;;;;;;;6.75;4.38;;;9.10;99.90;;;;;;5052997;28;20063;-68
2024/03/26 07:16:25;;;;;;;10.60;4.68;;;9.20;99.90;;;;;;5053092;28;20510;-67
2024/03/26 07:18:51;;;;;;;7.22;4.30;;;9.20;99.90;;;;;;5036640;28;20573;-67
2024/03/26 07:21:17;;;;;;;8.43;4.35;;;9.20;99.90;;;;;;5053334;28;20037;-66
2024/03/26 07:23:43;;;;;;;7.07;4.50;;;9.30;99.90;;;;;;5052675;28;20475;-67
2024/03/26 07:26:09;;;;;;;10.45;4.68;;;9.30;99.90;;;;;;5052614;28;20033;-67
2024/03/26 07:28:35;;;;;;;8.90;4.22;;;9.40;99.90;;;;;;5052340;28;20094;-67
2024/03/26 07:31:01;;;;;;;9.38;4.43;;;9.40;99.90;;;;;;5052892;28;20060;-67
2024/03/26 07:33:27;;;;;;;10.63;4.57;;;9.50;99.90;;;;;;5052648;28;20045;-68
2024/03/26 07:35:53;;;;;;;9.40;4.32;;;9.60;99.90;;;;;;5019636;28;20128;-67
2024/03/26 07:38:19;;;;;;;9.95;5.30;;;9.60;99.90;;;;;;5052200;28;20130;-67
2024/03/26 07:40:45;;;;;;;11.60;4.30;;;9.70;99.90;;;;;;5052771;28;20394;-67
2024/03/26 07:43:11;;;;;;;9.40;4.63;;;9.70;99.90;;;;;;5035965;28;20061;-67
2024/03/26 07:45:37;;;;;;;10.52;4.40;;;9.80;99.90;;;;;;5036016;28;20612;-66
2024/03/26 07:48:03;;;;;;;10.48;5.07;;;9.80;99.90;;;;;;5052337;28;20044;-67
2024/03/26 07:50:28;;;;;;;8.98;4.78;;;9.90;99.90;;;;;;5036096;28;20036;-66
2024/03/26 07:52:54;;;;;;;8.40;4.60;;;9.90;99.90;;;;;;5052408;28;20041;-67
2024/03/26 07:55:20;;;;;;;12.85;4.97;;;10.00;99.90;;;;;;5035526;28;20347;-67
2024/03/26 07:57:46;;;;;;;10.90;5.18;;;10.00;99.90;;;;;;5052206;28;20041;-66
2024/03/26 08:00:12;;;;;;;13.13;4.78;;;10.00;99.90;;;;;;5035797;28;20039;-66
2024/03/26 08:02:37;;;;;;;8.60;4.60;;;10.00;99.90;;;;;;5052572;28;20091;-65
2024/03/26 08:05:03;;;;;;;10.35;4.97;;;10.00;99.90;;;;;;5036163;28;20044;-65
2024/03/26 08:07:29;;;;;;;10.07;4.75;;;10.10;99.90;;;;;;5052400;28;20071;-66
2024/03/26 08:09:56;;;;;;;13.82;4.82;;;10.20;99.90;;;;;;5052235;28;20041;-66
2024/03/26 08:12:21;;;;;;;8.35;4.72;;;10.20;99.90;;;;;;5051508;28;20136;-65
2024/03/26 08:14:47;;;;;;;7.15;4.38;;;10.30;99.90;;;;;;5048029;28;20076;-65
2024/03/26 08:17:13;;;;;;;6.60;4.57;;;10.30;99.90;;;;;;5044192;28;20102;-65
2024/03/26 08:19:39;;;;;;;8.75;4.90;;;10.40;99.90;;;;;;5051638;28;20037;-65
2024/03/26 08:22:04;;;;;;;7.47;4.45;;;10.40;99.90;;;;;;5051736;28;20047;-65
2024/03/26 08:24:30;;;;;;;8.43;4.35;;;10.50;99.90;;;;;;5051183;28;20048;-65
2024/03/26 08:26:56;;;;;;;8.38;4.93;;;10.50;99.90;;;;;;5051272;28;20037;-65
2024/03/26 08:29:22;;;;;;;9.52;4.70;;;10.60;99.90;;;;;;5051294;28;20041;-65
2024/03/26 08:31:47;;;;;;;7.97;4.68;;;10.70;99.90;;;;;;5050910;28;20083;-64
2024/03/26 08:34:13;;;;;;;7.75;4.43;;;10.60;99.90;;;;;;5051235;28;20413;-61
2024/03/26 08:36:39;;;;;;;9.35;4.32;;;10.60;99.90;;;;;;5051530;28;20041;-61
2024/03/26 08:39:09;;;;;;;9.57;4.68;;;10.60;99.90;;;;;;5051258;28;20145;-61
2024/03/26 08:41:34;;;;;;;11.60;4.80;;;10.60;99.90;;;;;;5054871;28;20041;-61
2024/03/26 08:44:00;;;;;;;9.15;4.93;;;10.50;99.90;;;;;;5055231;28;20499;-61
2024/03/26 08:46:26;;;;;;;6.93;3.97;;;10.50;99.90;;;;;;5055366;28;20048;-61
2024/03/26 08:48:52;;;;;;;10.57;4.60;;;10.50;99.90;;;;;;5055463;28;20497;-61
2024/03/26 08:51:17;;;;;;;11.73;4.70;;;10.50;99.90;;;;;;5038941;28;20499;-61
2024/03/26 08:53:43;;;;;;;11.07;4.22;;;10.50;99.90;;;;;;5053200;28;20033;-61
2024/03/26 08:56:09;;;;;;;7.55;4.25;;;10.60;99.90;;;;;;5037305;28;20397;-62
2024/03/26 08:58:35;;;;;;;9.35;4.38;;;10.60;99.90;;;;;;5053846;28;20040;-62
2024/03/26 09:01:01;;;;;;;11.65;4.40;;;10.70;99.90;;;;;;5053587;28;20043;-62
2024/03/26 09:03:26;;;;;;;9.07;4.40;;;10.70;99.90;;;;;;5054402;28;20086;-62
2024/03/26 09:05:53;;;;;;;8.63;4.05;;;10.70;99.90;;;;;;5054496;28;20065;-63
2024/03/26 09:08:20;;;;;;;9.50;4.22;;;10.80;99.90;;;;;;5071680;28;20037;-63
2024/03/26 09:10:45;;;;;;;10.77;4.18;;;10.90;99.90;;;;;;5054932;28;20048;-62
2024/03/26 09:13:11;;;;;;;8.88;3.90;;;10.90;99.90;;;;;;5054807;28;20087;-63
2024/03/26 09:15:37;;;;;;;9.50;4.10;;;11.00;99.90;;;;;;5054389;28;20401;-63
2024/03/26 09:18:07;;;;;;;8.15;3.60;;;11.00;99.90;;;;;;5054739;28;20052;-63
2024/03/26 09:20:33;;;;;;;8.40;4.00;;;11.10;99.90;;;;;;5054717;28;20041;-63
2024/03/26 09:22:59;;;;;;;8.20;4.55;;;11.10;99.90;;;;;;5054767;28;20087;-63
2024/03/26 09:25:25;;;;;;;9.80;3.80;;;11.10;99.90;;;;;;5054715;28;20068;-63
2024/03/26 09:27:51;;;;;;;7.75;3.92;;;11.20;99.90;;;;;;5054874;28;20040;-64
2024/03/26 09:30:16;;;;;;;9.40;4.72;;;11.30;99.90;;;;;;5054977;28;20418;-63
2024/03/26 09:32:42;;;;;;;6.53;3.53;;;11.30;99.90;;;;;;5054570;28;20036;-63
2024/03/26 09:35:11;;;;;;;9.15;4.13;;;11.30;99.90;;;;;;5054632;28;20044;-63
2024/03/26 09:37:37;;;;;;;7.30;3.60;;;11.30;99.90;;;;;;5037536;28;20045;-58
2024/03/26 09:40:03;;;;;;;10.48;4.05;;;11.40;99.90;;;;;;5054591;28;20055;-68
2024/03/26 09:42:28;;;;;;;8.02;3.97;;;11.50;99.90;;;;;;5054474;28;20037;-69
2024/03/26 09:44:54;;;;;;;8.27;3.75;;;11.50;99.90;;;;;;5054324;28;20108;-61
2024/03/26 09:47:21;;;;;;;9.63;4.28;;;11.60;99.90;;;;;;5053905;28;20398;-61
2024/03/26 09:49:46;;;;;;;7.50;3.75;;;11.70;99.90;;;;;;5054303;28;20539;-62
2024/03/26 09:52:12;;;;;;;6.25;3.70;;;11.80;99.90;;;;;;5053761;28;20041;-61
2024/03/26 09:54:39;;;;;;;8.95;3.40;;;11.90;99.90;;;;;;5054208;28;20056;-60
2024/03/26 09:57:04;;;;;;;7.63;3.70;;;12.00;99.90;;;;;;5053924;28;20053;-60
2024/03/26 09:59:30;;;;;;;9.02;3.47;;;12.10;99.90;;;;;;5054346;28;20099;-60
2024/03/26 10:01:56;;;;;;;7.25;3.65;;;12.10;99.90;;;;;;5053962;28;20043;-64
2024/03/26 10:04:22;;;;;;;6.28;3.10;;;12.20;99.90;;;;;;5053975;28;20048;-65
2024/03/26 10:06:47;;;;;;;8.27;3.42;;;12.30;99.90;;;;;;5053726;28;20040;-61
2024/03/26 10:09:15;;;;;;;7.20;3.38;;;12.30;99.90;;;;;;5054034;28;20067;-61
2024/03/26 10:11:41;;;;;;;8.73;3.58;;;12.20;99.90;;;;;;5053836;28;20087;-61
2024/03/26 10:14:07;;;;;;;9.77;4.00;;;12.30;99.90;;;;;;5053706;28;20482;-66
2024/03/26 10:16:32;;;;;;;6.57;3.35;;;12.40;99.90;;;;;;5053358;28;20088;-63
2024/03/26 10:18:58;;;;;;;12.57;4.18;;;12.50;99.90;;;;;;5054004;28;20099;-67
2024/03/26 10:21:24;;;;;;;8.57;3.78;;;12.40;99.90;;;;;;5053686;28;20116;-67
2024/03/26 10:23:50;;;;;;;11.43;5.65;;;12.30;99.90;;;;;;5036917;28;20041;-63
2024/03/26 10:26:15;;;;;;;27.35;15.63;;;12.40;99.90;;;;;;5053771;28;20041;-63
2024/03/26 10:28:41;;;;;;;11.35;7.30;;;12.50;99.90;;;;;;5053388;28;20036;-61
2024/03/26 10:31:07;;;;;;;10.70;5.10;;;12.60;99.90;;;;;;5053604;28;20055;-61
2024/03/26 10:33:33;;;;;;;6.97;3.60;;;12.70;99.90;;;;;;5053097;28;20513;-67
2024/03/26 10:35:59;;;;;;;11.07;5.88;;;12.70;99.90;;;;;;5053317;28;20112;-68
2024/03/26 10:38:25;;;;;;;13.30;6.95;;;12.80;99.90;;;;;;5053305;28;20448;-65
2024/03/26 10:40:50;;;;;;;10.68;6.30;;;12.80;99.90;;;;;;5053352;28;20045;-61
2024/03/26 10:43:16;;;;;;;11.05;7.47;;;12.90;99.90;;;;;;5053342;28;20045;-61
2024/03/26 10:45:42;;;;;;;8.95;5.35;;;12.90;99.90;;;;;;5052766;28;20049;-61
2024/03/26 10:48:08;;;;;;;9.77;5.15;;;13.10;99.90;;;;;;5069435;28;20061;-60
2024/03/26 10:50:34;;;;;;;9.55;4.38;;;13.10;99.90;;;;;;5053130;28;20044;-61
2024/03/26 10:53:00;;;;;;;15.13;7.72;;;13.10;99.90;;;;;;5036297;28;20029;-61
2024/03/26 10:55:26;;;;;;;22.95;11.75;;;13.10;99.90;;;;;;5052906;28;20040;-64
2024/03/26 10:57:51;;;;;;;12.43;5.65;;;13.20;99.90;;;;;;5053458;28;20040;-64
2024/03/26 11:00:18;;;;;;;15.02;9.35;;;13.30;99.90;;;;;;5053607;28;20090;-64
2024/03/26 11:02:44;;;;;;;9.35;5.78;;;13.40;99.90;;;;;;5052307;28;20041;-61
2024/03/26 11:05:10;;;;;;;9.35;4.97;;;13.60;99.90;;;;;;5053566;28;20087;-61
2024/03/26 11:07:36;;;;;;;11.02;6.38;;;13.70;99.90;;;;;;5053345;28;20402;-61
2024/03/26 11:10:01;;;;;;;10.63;7.13;;;13.70;99.90;;;;;;5053343;28;20072;-63
2024/03/26 11:12:27;;;;;;;10.80;4.97;;;13.80;99.90;;;;;;5052419;28;20060;-62
2024/03/26 11:14:53;;;;;;;8.90;5.32;;;13.90;99.90;;;;;;5052903;28;20458;-62
2024/03/26 11:17:19;;;;;;;10.75;4.75;;;13.90;99.90;;;;;;5052387;28;20052;-62
2024/03/26 11:19:45;;;;;;;7.38;4.25;;;14.00;99.90;;;;;;5069912;28;20049;-65
2024/03/26 11:22:10;;;;;;;8.20;3.85;;;14.10;99.90;;;;;;5052901;28;20037;-60
2024/03/26 11:24:36;;;;;;;9.18;3.78;;;14.20;99.90;;;;;;5053302;28;20048;-67
2024/03/26 11:27:02;;;;;;;11.52;5.20;;;14.30;99.90;;;;;;5052527;28;20047;-67
2024/03/26 11:29:29;;;;;;;8.18;4.05;;;14.40;99.90;;;;;;5053262;28;20085;-64
2024/03/26 11:31:55;;;;;;;5.97;3.33;;;14.50;99.90;;;;;;5053090;28;20052;-65
2024/03/26 11:34:22;;;;;;;7.30;3.42;;;14.50;99.90;;;;;;5036092;28;20398;-61
2024/03/26 11:36:47;;;;;;;6.22;3.35;;;14.60;99.90;;;;;;5052965;28;20128;-62
2024/03/26 11:39:15;;;;;;;9.10;3.58;;;14.60;99.90;;;;;;5052567;28;20402;-62
2024/03/26 11:41:40;;;;;;;7.78;3.38;;;14.70;99.90;;;;;;5052902;28;20497;-62
2024/03/26 11:44:07;;;;;;;6.57;3.97;;;14.80;99.90;;;;;;5052388;28;20047;-62
2024/03/26 11:46:32;;;;;;;6.57;3.67;;;14.80;99.90;;;;;;5052937;28;20132;-63
2024/03/26 11:48:58;;;;;;;6.75;3.65;;;14.90;99.90;;;;;;5052662;28;20071;-63
2024/03/26 11:51:24;;;;;;;9.20;3.55;;;15.00;99.90;;;;;;5052366;28;20033;-64
2024/03/26 11:53:50;;;;;;;5.95;3.85;;;14.90;99.90;;;;;;5052481;28;20033;-65
2024/03/26 11:56:15;;;;;;;9.25;3.78;;;14.90;99.90;;;;;;5052475;28;20496;-64
2024/03/26 11:58:41;;;;;;;6.97;3.50;;;14.90;99.90;;;;;;5051983;28;20037;-65
2024/03/26 12:01:07;;;;;;;6.70;3.42;;;14.90;99.90;;;;;;5052835;28;20044;-59
2024/03/26 12:03:33;;;;;;;6.43;3.40;;;14.90;99.90;;;;;;5052366;28;20036;-60
2024/03/26 12:05:59;;;;;;;7.43;3.10;;;15.00;99.90;;;;;;5052034;28;20060;-62
2024/03/26 12:08:24;;;;;;;7.00;3.00;;;15.00;99.90;;;;;;5035860;28;20523;-66
2024/03/26 12:10:50;;;;;;;5.78;3.03;;;15.00;99.90;;;;;;5052722;28;20529;-61
2024/03/26 12:13:16;;;;;;;5.10;2.70;;;15.10;99.90;;;;;;5051930;28;20041;-61
2024/03/26 12:15:42;;;;;;;6.68;3.28;;;15.10;99.90;;;;;;5052024;28;20063;-62
2024/03/26 12:18:07;;;;;;;7.25;3.10;;;15.10;99.90;;;;;;5052512;28;20112;-62
2024/03/26 12:20:33;;;;;;;4.95;2.58;;;15.10;99.90;;;;;;5051468;28;20067;-62
2024/03/26 12:23:01;;;;;;;6.15;2.47;;;15.20;99.90;;;;;;5052315;28;20052;-62
2024/03/26 12:25:26;;;;;;;9.13;3.20;;;15.30;99.90;;;;;;5052407;28;20072;-66
2024/03/26 12:27:52;;;;;;;7.13;2.75;;;15.40;99.90;;;;;;5052281;28;20037;-62
2024/03/26 12:30:18;;;;;;;4.85;2.85;;;15.50;99.90;;;;;;5051882;28;20370;-66
2024/03/26 12:32:44;;;;;;;6.60;2.20;;;15.50;99.90;;;;;;5052491;28;20048;-65
2024/03/26 12:35:09;;;;;;;6.40;2.20;;;15.60;99.20;;;;;;5052451;28;20095;-65
2024/03/26 12:37:36;;;;;;;5.78;2.47;;;15.60;99.10;;;;;;5051794;28;20045;-67
2024/03/26 12:40:02;;;;;;;6.38;2.58;;;15.70;98.90;;;;;;5052403;28;20037;-62
2024/03/26 12:42:28;;;;;;;5.32;2.35;;;15.80;99.00;;;;;;5051790;28;20536;-64